createdAt,value
2023-08-30T00:00:39.577Z,99901.91
2023-08-30T00:03:09.450Z,99903.81
2023-08-30T00:05:41.092Z,99893.44
2023-08-30T00:08:10.152Z,99900.91
2023-08-30T00:10:39.042Z,99900.91
2023-08-30T00:13:07.664Z,99893.13
2023-08-30T00:15:35.960Z,99895.19
2023-08-30T00:18:05.136Z,99895.19
2023-08-30T00:20:35.119Z,99897.97
2023-08-30T00:23:04.413Z,99889.63
2023-08-30T00:25:32.645Z,99891.06
2023-08-30T00:28:00.850Z,99894.00
2023-08-30T00:30:29.575Z,99894.16
2023-08-30T00:32:57.875Z,99884.19
2023-08-30T00:35:26.282Z,99892.56
2023-08-30T00:37:55.989Z,99883.00
2023-08-30T00:40:25.078Z,99882.72
2023-08-30T00:42:53.848Z,99887.00
2023-08-30T00:45:22.001Z,99890.50
2023-08-30T00:47:50.657Z,99892.69
2023-08-30T00:50:20.207Z,99887.09
2023-08-30T00:52:48.668Z,99888.59
2023-08-30T00:55:18.723Z,99887.84
2023-08-30T00:57:48.604Z,99883.75
2023-08-30T01:00:18.149Z,99892.81
2023-08-30T01:02:47.258Z,99877.44
2023-08-30T01:05:16.092Z,99873.94
2023-08-30T01:07:45.239Z,99877.44
2023-08-30T01:10:13.613Z,99878.88
2023-08-30T01:12:47.892Z,99882.41
2023-08-30T01:15:22.177Z,99876.25
2023-08-30T01:17:52.858Z,99881.09
2023-08-30T01:20:23.474Z,99872.13
2023-08-30T01:23:03.102Z,99863.19
2023-08-30T01:25:35.370Z,99865.97
2023-08-30T01:28:08.393Z,99856.91
2023-08-30T01:30:39.872Z,99864.66
2023-08-30T01:33:09.926Z,99860.56
2023-08-30T01:35:38.766Z,99857.75
2023-08-30T01:38:10.798Z,99860.56
2023-08-30T01:40:41.890Z,99857.03
2023-08-30T01:43:12.988Z,99860.56
2023-08-30T01:45:44.342Z,99852.91
2023-08-30T01:48:14.992Z,99854.97
2023-08-30T01:50:45.254Z,99854.97
2023-08-30T01:53:15.509Z,99852.34
2023-08-30T01:55:44.974Z,99850.84
2023-08-30T01:58:14.631Z,99850.84
2023-08-30T02:00:44.450Z,99846.63
2023-08-30T02:03:14.214Z,99845.16
2023-08-30T02:06:00.486Z,99845.91
2023-08-30T02:08:37.732Z,99843.13
2023-08-30T02:11:10.039Z,99837.69
2023-08-30T02:13:41.911Z,99837.81
2023-08-30T02:16:11.861Z,99847.66
2023-08-30T02:18:40.907Z,99841.63
2023-08-30T02:21:09.366Z,99849.97
2023-08-30T02:23:37.868Z,99851.47
2023-08-30T02:26:06.308Z,99846.59
2023-08-30T02:28:35.085Z,99847.34
2023-08-30T02:31:04.683Z,99842.50
2023-08-30T02:33:32.879Z,99843.22
2023-08-30T02:36:01.050Z,99842.63
2023-08-30T02:38:29.333Z,99847.47
2023-08-30T02:40:57.761Z,99841.03
2023-08-30T02:43:26.537Z,99837.06
2023-08-30T02:45:54.939Z,99835.00
2023-08-30T02:48:24.729Z,99837.34
2023-08-30T02:50:52.880Z,99833.81
2023-08-30T02:53:21.546Z,99840.13
2023-08-30T02:55:50.077Z,99837.59
2023-08-30T02:58:18.304Z,99839.94
2023-08-30T03:00:46.651Z,99846.38
2023-08-30T03:03:15.200Z,99835.38
2023-08-30T03:05:44.933Z,99836.09
2023-08-30T03:08:13.432Z,99841.81
2023-08-30T03:10:41.764Z,99842.53
2023-08-30T03:13:10.799Z,99833.44
2023-08-30T03:15:39.237Z,99836.97
2023-08-30T03:18:07.997Z,99840.59
2023-08-30T03:20:36.465Z,99844.84
2023-08-30T03:23:06.291Z,99847.06
2023-08-30T03:25:35.523Z,99842.34
2023-08-30T03:28:04.390Z,99848.78
2023-08-30T03:30:33.093Z,99849.50
2023-08-30T03:33:01.356Z,99846.13
2023-08-30T03:35:29.613Z,99850.97
2023-08-30T03:37:58.170Z,99847.13
2023-08-30T03:40:28.894Z,99855.03
2023-08-30T03:42:56.970Z,99857.56
2023-08-30T03:45:25.155Z,99852.72
2023-08-30T03:47:54.445Z,99850.50
2023-08-30T03:50:22.664Z,99856.09
2023-08-30T03:52:50.869Z,99856.94
2023-08-30T03:55:19.200Z,99841.22
2023-08-30T03:57:48.965Z,99842.94
2023-08-30T04:00:17.348Z,99848.25
2023-08-30T04:02:46.371Z,99844.28
2023-08-30T04:05:14.948Z,99853.25
2023-08-30T04:07:43.273Z,99852.50
2023-08-30T04:10:11.706Z,99855.31
2023-08-30T04:12:40.324Z,99851.03
2023-08-30T04:15:11.724Z,99850.31
2023-08-30T04:17:39.917Z,99851.66
2023-08-30T04:20:11.611Z,99846.78
2023-08-30T04:22:39.813Z,99848.38
2023-08-30T04:25:10.395Z,99850.44
2023-08-30T04:27:38.712Z,99853.97
2023-08-30T04:30:08.191Z,99848.38
2023-08-30T04:32:38.026Z,99851.91
2023-08-30T04:35:06.469Z,99848.53
2023-08-30T04:37:34.576Z,99847.94
2023-08-30T04:40:04.628Z,99848.66
2023-08-30T04:42:32.951Z,99848.66
2023-08-30T04:45:01.928Z,99847.31
2023-08-30T04:47:30.501Z,99844.22
2023-08-30T04:50:01.028Z,99844.81
2023-08-30T04:52:29.686Z,99835.09
2023-08-30T04:54:59.593Z,99841.44
2023-08-30T04:57:29.453Z,99837.44
2023-08-30T05:00:00.807Z,99839.63
2023-08-30T05:02:29.172Z,99837.56
2023-08-30T05:05:09.464Z,99833.44
2023-08-30T05:07:37.780Z,99838.31
2023-08-30T05:10:07.364Z,99837.38
2023-08-30T05:12:36.491Z,99832.91
2023-08-30T05:15:06.191Z,99836.69
2023-08-30T05:17:37.930Z,99833.56
2023-08-30T05:20:09.616Z,99826.16
2023-08-30T05:22:37.947Z,99836.38
2023-08-30T05:25:06.959Z,99837.25
2023-08-30T05:27:35.472Z,99834.59
2023-08-30T05:30:04.349Z,99844.22
2023-08-30T05:32:33.443Z,99841.44
2023-08-30T05:35:21.690Z,99836.84
2023-08-30T05:38:08.155Z,99826.25
2023-08-30T05:41:02.377Z,99828.38
2023-08-30T05:43:31.577Z,99838.56
2023-08-30T05:46:03.729Z,99838.09
2023-08-30T05:48:33.527Z,99834.34
2023-08-30T05:51:03.920Z,99837.13
2023-08-30T05:53:32.489Z,99818.81
2023-08-30T05:56:01.520Z,99829.63
2023-08-30T05:58:30.667Z,99825.03
2023-08-30T06:01:01.096Z,99827.94
2023-08-30T06:03:30.950Z,99833.81
2023-08-30T06:05:59.578Z,99831.63
2023-08-30T06:08:29.896Z,99837.81
2023-08-30T06:10:58.212Z,99830.91
2023-08-30T06:13:26.555Z,99838.91
2023-08-30T06:15:55.328Z,99836.47
2023-08-30T06:18:23.638Z,99836.59
2023-08-30T06:20:52.081Z,99839.88
2023-08-30T06:23:21.137Z,99843.28
2023-08-30T06:25:56.976Z,99846.66
2023-08-30T06:28:25.759Z,99840.59
2023-08-30T06:30:54.298Z,99840.31
2023-08-30T06:33:22.429Z,99838.88
2023-08-30T06:35:51.778Z,99841.13
2023-08-30T06:38:20.036Z,99843.16
2023-08-30T06:40:48.666Z,99843.16
2023-08-30T06:43:19.527Z,99843.38
2023-08-30T06:45:48.425Z,99842.81
2023-08-30T06:48:16.713Z,99845.72
2023-08-30T06:50:44.920Z,99847.38
2023-08-30T06:53:13.080Z,99843.38
2023-08-30T06:55:41.296Z,99849.16
2023-08-30T06:58:09.943Z,99842.94
2023-08-30T07:00:39.901Z,99853.09
2023-08-30T07:03:08.402Z,99842.84
2023-08-30T07:05:36.749Z,99839.31
2023-08-30T07:08:05.424Z,99838.72
2023-08-30T07:10:35.973Z,99829.47
2023-08-30T07:13:05.343Z,99824.97
2023-08-30T07:15:35.360Z,99827.25
2023-08-30T07:18:05.494Z,99828.44
2023-08-30T07:20:33.856Z,99823.75
2023-08-30T07:23:02.565Z,99824.25
2023-08-30T07:25:31.824Z,99822.22
2023-08-30T07:28:00.080Z,99814.00
2023-08-30T07:30:29.316Z,99817.09
2023-08-30T07:32:58.232Z,99823.31
2023-08-30T07:35:27.859Z,99824.41
2023-08-30T07:37:56.124Z,99827.69
2023-08-30T07:40:27.574Z,99818.31
2023-08-30T07:42:59.555Z,99816.94
2023-08-30T07:45:28.747Z,99818.88
2023-08-30T07:47:57.404Z,99822.09
2023-08-30T07:50:27.109Z,99818.09
2023-08-30T07:52:55.233Z,99817.19
2023-08-30T07:55:23.586Z,99812.41
2023-08-30T07:57:51.718Z,99821.31
2023-08-30T08:00:20.313Z,99819.69
2023-08-30T08:02:48.703Z,99823.53
2023-08-30T08:05:17.781Z,99832.06
2023-08-30T08:07:47.481Z,99827.34
2023-08-30T08:10:15.767Z,99834.19
2023-08-30T08:12:44.211Z,99834.56
2023-08-30T08:15:12.761Z,99830.78
2023-08-30T08:17:40.978Z,99833.97
2023-08-30T08:20:09.945Z,99837.63
2023-08-30T08:22:40.045Z,99835.66
2023-08-30T08:25:11.706Z,99845.84
2023-08-30T08:27:40.220Z,99839.94
2023-08-30T08:30:10.580Z,99843.41
2023-08-30T08:32:38.978Z,99847.97
2023-08-30T08:35:08.320Z,99845.91
2023-08-30T08:37:36.826Z,99842.59
2023-08-30T08:40:09.653Z,99846.44
2023-08-30T08:42:40.075Z,99835.94
2023-08-30T08:45:11.020Z,99836.41
2023-08-30T08:47:39.935Z,99839.91
2023-08-30T08:50:09.077Z,99838.19
2023-08-30T08:52:44.206Z,99839.25
2023-08-30T08:55:23.578Z,99837.38
2023-08-30T08:57:53.423Z,99836.59
2023-08-30T09:00:21.815Z,99842.50
2023-08-30T09:02:52.483Z,99835.31
2023-08-30T09:05:21.676Z,99835.06
2023-08-30T09:07:54.426Z,99837.31
2023-08-30T09:10:23.463Z,99839.69
2023-08-30T09:12:53.235Z,99834.28
2023-08-30T09:15:22.596Z,99834.19
2023-08-30T09:17:51.172Z,99827.56
2023-08-30T09:20:21.821Z,99833.03
2023-08-30T09:22:51.663Z,99834.97
2023-08-30T09:25:26.501Z,99837.97
2023-08-30T09:28:01.658Z,99826.31
2023-08-30T09:30:30.663Z,99828.53
2023-08-30T09:33:03.894Z,99822.91
2023-08-30T09:35:32.176Z,99820.66
2023-08-30T09:38:00.396Z,99830.03
2023-08-30T09:40:30.182Z,99824.97
2023-08-30T09:43:12.812Z,99821.72
2023-08-30T09:45:42.560Z,99812.91
2023-08-30T09:48:12.230Z,99810.31
2023-08-30T09:50:44.059Z,99809.16
2023-08-30T09:53:14.254Z,99805.25
2023-08-30T09:55:45.087Z,99802.69
2023-08-30T09:58:17.347Z,99811.03
2023-08-30T10:00:48.153Z,99800.31
2023-08-30T10:03:30.532Z,99805.84
2023-08-30T10:06:04.081Z,99804.03
2023-08-30T10:08:32.659Z,99802.28
2023-08-30T10:11:02.921Z,99802.16
2023-08-30T10:13:35.803Z,99789.56
2023-08-30T10:16:06.550Z,99786.66
2023-08-30T10:18:43.671Z,99777.28
2023-08-30T10:21:20.669Z,99780.47
2023-08-30T10:23:52.888Z,99781.91
2023-08-30T10:26:21.998Z,99769.09
2023-08-30T10:28:53.101Z,99775.56
2023-08-30T10:31:21.473Z,99763.72
2023-08-30T10:33:51.112Z,99760.28
2023-08-30T10:36:24.417Z,99747.81
2023-08-30T10:38:54.471Z,99748.09
2023-08-30T10:41:24.049Z,99752.44
2023-08-30T10:43:59.859Z,99757.66
2023-08-30T10:46:35.758Z,99752.28
2023-08-30T10:49:12.143Z,99758.03
2023-08-30T10:51:41.833Z,99750.09
2023-08-30T10:54:14.767Z,99752.78
2023-08-30T10:56:50.348Z,99740.81
2023-08-30T10:59:21.139Z,99739.50
2023-08-30T11:01:50.576Z,99738.34
2023-08-30T11:04:20.133Z,99734.78
2023-08-30T11:06:50.052Z,99734.94
2023-08-30T11:09:23.101Z,99743.53
2023-08-30T11:11:56.130Z,99725.69
2023-08-30T11:14:25.926Z,99733.41
2023-08-30T11:16:54.139Z,99715.09
2023-08-30T11:19:23.425Z,99707.44
2023-08-30T11:21:51.659Z,99712.31
2023-08-30T11:24:20.242Z,99711.03
2023-08-30T11:26:49.777Z,99709.59
2023-08-30T11:29:18.046Z,99706.38
2023-08-30T11:31:48.317Z,99698.47
2023-08-30T11:34:16.585Z,99703.16
2023-08-30T11:36:44.878Z,99696.38
2023-08-30T11:39:13.509Z,99695.00
2023-08-30T11:41:42.043Z,99691.34
2023-08-30T11:44:10.941Z,99699.25
2023-08-30T11:46:39.256Z,99688.44
2023-08-30T11:49:09.424Z,99684.66
2023-08-30T11:51:39.150Z,99697.88
2023-08-30T11:54:09.239Z,99687.28
2023-08-30T11:56:38.254Z,99679.59
2023-08-30T11:59:06.736Z,99686.53
2023-08-30T12:01:35.692Z,99671.72
2023-08-30T12:04:12.874Z,99674.31
2023-08-30T12:06:41.076Z,99666.13
2023-08-30T12:09:14.526Z,99665.75
2023-08-30T12:11:43.782Z,99674.09
2023-08-30T12:14:12.534Z,99667.50
2023-08-30T12:16:42.200Z,99664.28
2023-08-30T12:19:13.358Z,99673.66
2023-08-30T12:21:42.894Z,99673.38
2023-08-30T12:24:11.644Z,99668.31
2023-08-30T12:26:40.310Z,99671.84
2023-08-30T12:29:08.630Z,99661.56
2023-08-30T12:31:37.018Z,99667.78
2023-08-30T12:34:05.587Z,99655.78
2023-08-30T12:36:35.524Z,99653.41
2023-08-30T12:39:06.422Z,99652.25
2023-08-30T12:41:34.859Z,99655.19
2023-08-30T12:44:05.335Z,99659.28
2023-08-30T12:46:36.317Z,99655.56
2023-08-30T12:49:04.662Z,99657.19
2023-08-30T12:51:33.467Z,99655.63
2023-08-30T12:54:03.677Z,99652.66
2023-08-30T12:56:32.198Z,99652.56
2023-08-30T12:59:01.640Z,99652.13
2023-08-30T13:01:31.070Z,99645.81
2023-08-30T13:03:59.525Z,99644.81
2023-08-30T13:06:27.801Z,99651.50
2023-08-30T13:08:56.008Z,99646.75
2023-08-30T13:11:27.799Z,99642.13
2023-08-30T13:13:58.308Z,99634.25
2023-08-30T13:16:26.938Z,99634.81
2023-08-30T13:18:57.254Z,99632.00
2023-08-30T13:21:35.263Z,99636.38
2023-08-30T13:24:08.702Z,99636.72
2023-08-30T13:26:38.898Z,99640.16
2023-08-30T13:29:08.936Z,99631.41
2023-08-30T13:31:37.200Z,99632.47
2023-08-30T13:34:05.860Z,99640.19
2023-08-30T13:36:34.535Z,99636.44
2023-08-30T13:39:03.854Z,99630.31
2023-08-30T13:41:31.968Z,99627.44
2023-08-30T13:44:02.893Z,99626.47
2023-08-30T13:46:31.537Z,99620.28
2023-08-30T13:49:01.378Z,99617.59
2023-08-30T13:51:29.613Z,99613.28
2023-08-30T13:53:58.473Z,99605.56
2023-08-30T13:56:28.800Z,99613.44
2023-08-30T13:58:59.226Z,99613.03
2023-08-30T14:01:29.033Z,99605.72
2023-08-30T14:03:58.242Z,99607.44
2023-08-30T14:06:26.475Z,99606.44
2023-08-30T14:08:55.147Z,99608.53
2023-08-30T14:11:23.812Z,99611.56
2023-08-30T14:13:54.773Z,99599.28
2023-08-30T14:16:26.625Z,99607.19
2023-08-30T14:18:56.843Z,99613.09
2023-08-30T14:21:25.092Z,99612.91
2023-08-30T14:23:53.406Z,99625.59
2023-08-30T14:26:22.248Z,99609.69
2023-08-30T14:28:50.565Z,99616.88
2023-08-30T14:31:19.661Z,99627.66
2023-08-30T14:33:48.597Z,99622.44
2023-08-30T14:36:18.248Z,99629.44
2023-08-30T14:38:46.491Z,99618.09
2023-08-30T14:41:17.286Z,99613.06
2023-08-30T14:43:47.207Z,99609.63
2023-08-30T14:46:22.537Z,99608.50
2023-08-30T14:48:52.958Z,99614.38
2023-08-30T14:51:23.073Z,99622.06
2023-08-30T14:53:51.398Z,99606.78
2023-08-30T14:56:20.046Z,99607.47
2023-08-30T14:58:50.532Z,99610.59
2023-08-30T15:01:18.878Z,99603.69
2023-08-30T15:03:47.191Z,99600.38
2023-08-30T15:06:16.407Z,99605.03
2023-08-30T15:08:46.263Z,99602.50
2023-08-30T15:11:14.881Z,99599.06
2023-08-30T15:13:43.503Z,99594.97
2023-08-30T15:16:13.111Z,99600.66
2023-08-30T15:18:41.580Z,99601.88
2023-08-30T15:21:09.958Z,99618.16
2023-08-30T15:23:38.744Z,99611.69
2023-08-30T15:26:09.123Z,99599.84
2023-08-30T15:28:39.243Z,99598.66
2023-08-30T15:31:07.937Z,99604.25
2023-08-30T15:33:36.581Z,99606.31
2023-08-30T15:36:05.724Z,99600.22
2023-08-30T15:38:35.233Z,99594.59
2023-08-30T15:41:04.194Z,99582.75
2023-08-30T15:43:40.177Z,99592.50
2023-08-30T15:46:08.719Z,99585.28
2023-08-30T15:48:38.890Z,99584.19
2023-08-30T15:51:16.351Z,99581.53
2023-08-30T15:53:52.870Z,99592.75
2023-08-30T15:56:21.757Z,99586.06
2023-08-30T15:58:51.672Z,99584.13
2023-08-30T16:01:21.756Z,99587.50
2023-08-30T16:03:50.858Z,99581.13
2023-08-30T16:06:19.708Z,99580.16
2023-08-30T16:08:48.422Z,99579.88
2023-08-30T16:11:18.155Z,99570.91
2023-08-30T16:13:48.105Z,99571.81
2023-08-30T16:16:17.757Z,99577.06
2023-08-30T16:18:47.571Z,99573.91
2023-08-30T16:21:15.798Z,99574.47
2023-08-30T16:23:44.549Z,99583.50
2023-08-30T16:26:12.811Z,99574.28
2023-08-30T16:28:41.313Z,99576.47
2023-08-30T16:31:13.741Z,99574.63
2023-08-30T16:33:43.591Z,99573.53
2023-08-30T16:36:12.146Z,99582.03
2023-08-30T16:38:41.354Z,99583.13
2023-08-30T16:41:10.644Z,99583.53
2023-08-30T16:43:39.080Z,99585.28
2023-08-30T16:46:09.758Z,99579.81
2023-08-30T16:48:38.050Z,99581.44
2023-08-30T16:51:09.648Z,99587.44
2023-08-30T16:53:39.183Z,99587.84
2023-08-30T16:56:07.467Z,99585.91
2023-08-30T16:58:37.897Z,99586.72
2023-08-30T17:01:10.975Z,99579.56
2023-08-30T17:03:39.506Z,99579.56
2023-08-30T17:06:09.208Z,99592.22
2023-08-30T17:08:37.810Z,99591.19
2023-08-30T17:11:06.725Z,99583.47
2023-08-30T17:13:36.332Z,99585.88
2023-08-30T17:16:08.874Z,99591.78
2023-08-30T17:18:38.949Z,99588.25
2023-08-30T17:21:11.004Z,99591.44
2023-08-30T17:23:40.586Z,99592.00
2023-08-30T17:26:10.334Z,99599.47
2023-08-30T17:28:39.223Z,99595.03
2023-08-30T17:31:08.804Z,99598.97
2023-08-30T17:33:39.032Z,99608.41
2023-08-30T17:36:10.380Z,99606.97
2023-08-30T17:38:40.256Z,99617.34
2023-08-30T17:41:12.484Z,99631.50
2023-08-30T17:43:41.790Z,99632.13
2023-08-30T17:46:10.242Z,99627.47
2023-08-30T17:48:40.241Z,99628.56
2023-08-30T17:51:10.042Z,99625.38
2023-08-30T17:53:39.921Z,99633.16
2023-08-30T17:56:09.400Z,99636.91
2023-08-30T17:58:38.265Z,99630.84
2023-08-30T18:01:10.821Z,99630.34
2023-08-30T18:03:39.626Z,99625.19
2023-08-30T18:06:13.849Z,99623.22
2023-08-30T18:08:42.954Z,99624.03
2023-08-30T18:11:14.456Z,99611.44
2023-08-30T18:13:43.300Z,99606.81
2023-08-30T18:16:13.166Z,99605.19
2023-08-30T18:18:42.001Z,99611.09
2023-08-30T18:21:13.134Z,99622.31
2023-08-30T18:23:43.647Z,99663.97
2023-08-30T18:26:12.574Z,99676.09
2023-08-30T18:28:40.939Z,99689.53
2023-08-30T18:31:09.681Z,99691.81
2023-08-30T18:33:37.849Z,99702.09
2023-08-30T18:36:07.689Z,99726.13
2023-08-30T18:38:39.522Z,99742.13
2023-08-30T18:41:16.893Z,99755.81
2023-08-30T18:43:46.327Z,99766.88
2023-08-30T18:46:19.715Z,99783.22
2023-08-30T18:48:49.139Z,99785.28
2023-08-30T18:51:18.134Z,99783.72
2023-08-30T18:53:48.226Z,99786.19
2023-08-30T18:56:17.469Z,99794.44
2023-08-30T18:58:46.027Z,99804.03
2023-08-30T19:01:16.760Z,99807.81
2023-08-30T19:03:47.583Z,99802.69
2023-08-30T19:06:17.449Z,99795.88
2023-08-30T19:08:49.428Z,99803.16
2023-08-30T19:11:18.396Z,99802.06
2023-08-30T19:13:48.144Z,99802.19
2023-08-30T19:16:18.552Z,99799.00
2023-08-30T19:18:47.462Z,99792.31
2023-08-30T19:21:16.049Z,99793.00
2023-08-30T19:23:45.682Z,99798.25
2023-08-30T19:26:15.453Z,99798.25
2023-08-30T19:28:43.969Z,99798.19
2023-08-30T19:31:12.720Z,99793.69
2023-08-30T19:33:43.240Z,99789.31
2023-08-30T19:36:11.834Z,99795.47
2023-08-30T19:38:40.161Z,99801.78
2023-08-30T19:41:08.773Z,99808.94
2023-08-30T19:43:38.533Z,99794.53
2023-08-30T19:46:08.524Z,99802.69
2023-08-30T19:48:37.047Z,99800.91
2023-08-30T19:51:06.487Z,99799.81
2023-08-30T19:53:34.868Z,99809.19
2023-08-30T19:56:07.145Z,99816.34
2023-08-30T19:58:35.764Z,99816.66
2023-08-30T20:01:07.184Z,99818.19
2023-08-30T20:03:36.168Z,99794.88
2023-08-30T20:06:05.510Z,99801.41
2023-08-30T20:08:34.240Z,99816.44
2023-08-30T20:11:04.495Z,99816.06
2023-08-30T20:13:33.207Z,99832.38
2023-08-30T20:16:03.573Z,99833.50
2023-08-30T20:18:34.091Z,99836.38
2023-08-30T20:21:05.792Z,99838.31
2023-08-30T20:23:34.289Z,99838.81
2023-08-30T20:26:02.593Z,99846.09
2023-08-30T20:28:31.721Z,99848.69
2023-08-30T20:31:02.432Z,99842.50
2023-08-30T20:33:31.762Z,99849.41
2023-08-30T20:36:06.268Z,99837.00
2023-08-30T20:38:36.232Z,99842.31
2023-08-30T20:41:06.640Z,99844.84
2023-08-30T20:43:35.213Z,99839.88
2023-08-30T20:46:04.504Z,99825.28
2023-08-30T20:48:33.793Z,99825.81
2023-08-30T20:51:06.044Z,99823.03
2023-08-30T20:53:36.817Z,99821.69
2023-08-30T20:56:08.414Z,99820.28
2023-08-30T20:58:42.439Z,99827.59
2023-08-30T21:01:11.002Z,99828.22
2023-08-30T21:03:40.205Z,99836.72
2023-08-30T21:06:10.403Z,99835.38
2023-08-30T21:08:39.753Z,99830.53
2023-08-30T21:11:11.281Z,99838.03
2023-08-30T21:13:39.588Z,99833.38
2023-08-30T21:16:08.451Z,99851.31
2023-08-30T21:18:36.849Z,99846.72
2023-08-30T21:21:05.503Z,99841.16
2023-08-30T21:23:35.225Z,99838.44
2023-08-30T21:26:04.353Z,99833.06
2023-08-30T21:28:33.584Z,99823.41
2023-08-30T21:31:03.548Z,99829.78
2023-08-30T21:33:31.973Z,99823.66
2023-08-30T21:36:00.907Z,99828.97
2023-08-30T21:38:29.373Z,99835.91
2023-08-30T21:40:59.695Z,99837.53
2023-08-30T21:43:28.360Z,99836.72
2023-08-30T21:45:56.712Z,99846.09
2023-08-30T21:48:24.979Z,99852.13
2023-08-30T21:50:53.351Z,99863.72
2023-08-30T21:53:21.541Z,99859.75
2023-08-30T21:55:49.787Z,99863.97
2023-08-30T21:58:19.742Z,99862.81
2023-08-30T22:00:48.179Z,99860.44
2023-08-30T22:03:16.676Z,99856.03
2023-08-30T22:05:45.521Z,99866.44
2023-08-30T22:08:14.541Z,99870.34
2023-08-30T22:10:43.315Z,99880.16
2023-08-30T22:13:12.928Z,99883.03
2023-08-30T22:15:42.800Z,99888.19
2023-08-30T22:18:11.211Z,99896.69
2023-08-30T22:20:39.757Z,99890.34
2023-08-30T22:23:08.420Z,99892.56
2023-08-30T22:25:40.209Z,99889.19
2023-08-30T22:28:08.742Z,99894.03
2023-08-30T22:30:38.863Z,99891.50
2023-08-30T22:33:11.157Z,99892.13
2023-08-30T22:35:40.033Z,99900.47
2023-08-30T22:38:08.575Z,99898.41
2023-08-30T22:40:36.864Z,99888.72
2023-08-30T22:43:05.931Z,99897.69
2023-08-30T22:45:34.451Z,99895.34
2023-08-30T22:48:02.899Z,99900.63
2023-08-30T22:50:32.643Z,99905.03
2023-08-30T22:53:03.216Z,99905.22
2023-08-30T22:55:32.440Z,99891.72
2023-08-30T22:58:04.632Z,99900.69
2023-08-30T23:00:37.826Z,99903.78
2023-08-30T23:03:11.412Z,99903.03
2023-08-30T23:05:43.522Z,99902.78
2023-08-30T23:08:12.476Z,99904.41
2023-08-30T23:10:40.869Z,99909.81
2023-08-30T23:13:09.491Z,99904.56
2023-08-30T23:15:38.523Z,99900.03
2023-08-30T23:18:08.504Z,99902.97
2023-08-30T23:20:37.243Z,99903.88
2023-08-30T23:23:11.079Z,99918.41
2023-08-30T23:25:40.465Z,99919.69
2023-08-30T23:28:08.929Z,99920.56
2023-08-30T23:30:37.596Z,99928.63
2023-08-30T23:33:06.753Z,99926.72
2023-08-30T23:35:35.555Z,99932.44
2023-08-30T23:38:04.228Z,99931.84
2023-08-30T23:40:34.257Z,99928.31
2023-08-30T23:43:03.382Z,99930.97
2023-08-30T23:45:32.641Z,99929.22
2023-08-30T23:48:01.264Z,99933.19
2023-08-30T23:50:31.825Z,99936.28
2023-08-30T23:53:00.759Z,99928.97
2023-08-30T23:55:29.336Z,99935.41
2023-08-30T23:58:00.120Z,99929.69
